sensor_id;sensor_type;location;lat;lon;timestamp;temperature;humidity
9837;DHT22;4957;51.412;6.724;2023-08-07T00:02:00;15.50;99.90
9837;DHT22;4957;51.412;6.724;2023-08-07T00:04:25;15.50;99.90
9837;DHT22;4957;51.412;6.724;2023-08-07T00:06:51;15.50;99.90
9837;DHT22;4957;51.412;6.724;2023-08-07T00:09:17;15.40;99.90
9837;DHT22;4957;51.412;6.724;2023-08-07T00:11:42;15.40;99.90
9837;DHT22;4957;51.412;6.724;2023-08-07T00:14:08;15.40;99.90
9837;DHT22;4957;51.412;6.724;2023-08-07T00:16:34;15.40;99.90
9837;DHT22;4957;51.412;6.724;2023-08-07T00:18:59;15.40;99.90
9837;DHT22;4957;51.412;6.724;2023-08-07T00:21:25;15.40;99.90
9837;DHT22;4957;51.412;6.724;2023-08-07T00:23:51;15.40;99.90
9837;DHT22;4957;51.412;6.724;2023-08-07T00:26:17;15.40;99.90
9837;DHT22;4957;51.412;6.724;2023-08-07T00:28:42;15.40;99.90
9837;DHT22;4957;51.412;6.724;2023-08-07T00:31:09;15.40;99.90
9837;DHT22;4957;51.412;6.724;2023-08-07T00:33:34;15.40;99.90
9837;DHT22;4957;51.412;6.724;2023-08-07T00:36:00;15.30;99.90
9837;DHT22;4957;51.412;6.724;2023-08-07T00:38:26;15.40;99.90
9837;DHT22;4957;51.412;6.724;2023-08-07T00:40:51;15.40;99.90
9837;DHT22;4957;51.412;6.724;2023-08-07T00:43:17;15.30;99.90
9837;DHT22;4957;51.412;6.724;2023-08-07T00:45:45;15.30;99.90
9837;DHT22;4957;51.412;6.724;2023-08-07T00:48:12;15.30;99.90
9837;DHT22;4957;51.412;6.724;2023-08-07T00:50:39;15.30;99.90
9837;DHT22;4957;51.412;6.724;2023-08-07T00:53:05;15.30;99.90
9837;DHT22;4957;51.412;6.724;2023-08-07T00:55:32;15.30;99.90
9837;DHT22;4957;51.412;6.724;2023-08-07T00:57:58;15.30;99.90
9837;DHT22;4957;51.412;6.724;2023-08-07T01:00:27;15.20;99.90
9837;DHT22;4957;51.412;6.724;2023-08-07T01:02:54;15.30;99.90
9837;DHT22;4957;51.412;6.724;2023-08-07T01:05:21;15.30;99.90
9837;DHT22;4957;51.412;6.724;2023-08-07T01:07:48;15.30;99.90
9837;DHT22;4957;51.412;6.724;2023-08-07T01:10:14;15.20;99.90
9837;DHT22;4957;51.412;6.724;2023-08-07T01:12:50;15.20;99.90
9837;DHT22;4957;51.412;6.724;2023-08-07T01:15:24;15.20;99.90
9837;DHT22;4957;51.412;6.724;2023-08-07T01:17:53;15.20;99.90
9837;DHT22;4957;51.412;6.724;2023-08-07T01:20:19;15.20;99.90
9837;DHT22;4957;51.412;6.724;2023-08-07T01:22:45;15.20;99.90
9837;DHT22;4957;51.412;6.724;2023-08-07T01:25:11;15.20;99.90
9837;DHT22;4957;51.412;6.724;2023-08-07T01:28:02;15.20;99.90
9837;DHT22;4957;51.412;6.724;2023-08-07T01:30:37;15.20;99.90
9837;DHT22;4957;51.412;6.724;2023-08-07T01:35:41;15.20;99.90
9837;DHT22;4957;51.412;6.724;2023-08-07T01:38:09;15.20;99.90
9837;DHT22;4957;51.412;6.724;2023-08-07T01:40:37;15.20;99.90
9837;DHT22;4957;51.412;6.724;2023-08-07T01:43:04;15.20;99.90
9837;DHT22;4957;51.412;6.724;2023-08-07T01:45:30;15.20;99.90
9837;DHT22;4957;51.412;6.724;2023-08-07T01:47:56;15.10;99.90
9837;DHT22;4957;51.412;6.724;2023-08-07T01:50:23;15.10;99.90
9837;DHT22;4957;51.412;6.724;2023-08-07T01:52:49;15.20;99.90
9837;DHT22;4957;51.412;6.724;2023-08-07T01:55:16;15.10;99.90
9837;DHT22;4957;51.412;6.724;2023-08-07T01:57:42;15.10;99.90
9837;DHT22;4957;51.412;6.724;2023-08-07T02:00:09;15.10;99.90
9837;DHT22;4957;51.412;6.724;2023-08-07T02:02:36;15.10;99.90
9837;DHT22;4957;51.412;6.724;2023-08-07T02:05:02;15.10;99.90
9837;DHT22;4957;51.412;6.724;2023-08-07T02:07:28;15.10;99.90
9837;DHT22;4957;51.412;6.724;2023-08-07T02:09:56;15.10;99.90
9837;DHT22;4957;51.412;6.724;2023-08-07T02:12:24;15.10;99.90
9837;DHT22;4957;51.412;6.724;2023-08-07T02:14:52;15.10;99.90
9837;DHT22;4957;51.412;6.724;2023-08-07T02:17:21;15.10;99.90
9837;DHT22;4957;51.412;6.724;2023-08-07T02:19:50;15.10;99.90
9837;DHT22;4957;51.412;6.724;2023-08-07T02:22:16;15.10;99.90
9837;DHT22;4957;51.412;6.724;2023-08-07T02:24:41;15.10;99.90
9837;DHT22;4957;51.412;6.724;2023-08-07T02:27:07;15.10;99.90
9837;DHT22;4957;51.412;6.724;2023-08-07T02:29:33;15.00;99.90
9837;DHT22;4957;51.412;6.724;2023-08-07T02:32:02;15.00;99.90
9837;DHT22;4957;51.412;6.724;2023-08-07T02:34:31;15.00;99.90
9837;DHT22;4957;51.412;6.724;2023-08-07T02:36:58;15.00;99.90
9837;DHT22;4957;51.412;6.724;2023-08-07T02:39:24;15.00;99.90
9837;DHT22;4957;51.412;6.724;2023-08-07T02:41:50;15.00;99.90
9837;DHT22;4957;51.412;6.724;2023-08-07T02:44:16;15.00;99.90
9837;DHT22;4957;51.412;6.724;2023-08-07T02:46:43;15.00;99.90
9837;DHT22;4957;51.412;6.724;2023-08-07T02:49:09;15.00;99.90
9837;DHT22;4957;51.412;6.724;2023-08-07T02:51:34;15.00;99.90
9837;DHT22;4957;51.412;6.724;2023-08-07T02:54:00;15.00;99.90
9837;DHT22;4957;51.412;6.724;2023-08-07T02:56:26;15.00;99.90
9837;DHT22;4957;51.412;6.724;2023-08-07T02:58:55;15.00;99.90
9837;DHT22;4957;51.412;6.724;2023-08-07T03:01:23;15.00;99.90
9837;DHT22;4957;51.412;6.724;2023-08-07T03:03:49;14.90;99.90
9837;DHT22;4957;51.412;6.724;2023-08-07T03:06:15;15.00;99.90
9837;DHT22;4957;51.412;6.724;2023-08-07T03:08:40;15.00;99.90
9837;DHT22;4957;51.412;6.724;2023-08-07T03:11:06;15.00;99.90
9837;DHT22;4957;51.412;6.724;2023-08-07T03:13:32;14.90;99.90
9837;DHT22;4957;51.412;6.724;2023-08-07T03:16:02;14.90;99.90
9837;DHT22;4957;51.412;6.724;2023-08-07T03:18:29;15.00;99.90
9837;DHT22;4957;51.412;6.724;2023-08-07T03:20:59;14.90;99.90
9837;DHT22;4957;51.412;6.724;2023-08-07T03:23:25;14.90;99.90
9837;DHT22;4957;51.412;6.724;2023-08-07T03:26:11;14.90;99.90
9837;DHT22;4957;51.412;6.724;2023-08-07T03:28:37;14.90;99.90
9837;DHT22;4957;51.412;6.724;2023-08-07T03:31:03;14.90;99.90
9837;DHT22;4957;51.412;6.724;2023-08-07T03:33:29;14.90;99.90
9837;DHT22;4957;51.412;6.724;2023-08-07T03:35:55;14.90;99.90
9837;DHT22;4957;51.412;6.724;2023-08-07T03:38:21;14.90;99.90
9837;DHT22;4957;51.412;6.724;2023-08-07T03:40:47;14.90;99.90
9837;DHT22;4957;51.412;6.724;2023-08-07T03:43:13;14.80;99.90
9837;DHT22;4957;51.412;6.724;2023-08-07T03:45:39;14.90;99.90
9837;DHT22;4957;51.412;6.724;2023-08-07T03:48:07;14.80;99.90
9837;DHT22;4957;51.412;6.724;2023-08-07T03:50:33;14.90;99.90
9837;DHT22;4957;51.412;6.724;2023-08-07T03:53:03;14.80;99.90
9837;DHT22;4957;51.412;6.724;2023-08-07T03:55:30;14.80;99.90
9837;DHT22;4957;51.412;6.724;2023-08-07T03:57:56;14.80;99.90
9837;DHT22;4957;51.412;6.724;2023-08-07T04:00:21;14.80;99.90
9837;DHT22;4957;51.412;6.724;2023-08-07T04:02:47;14.80;99.90
9837;DHT22;4957;51.412;6.724;2023-08-07T04:05:13;14.80;99.90
9837;DHT22;4957;51.412;6.724;2023-08-07T04:07:38;14.80;99.90
9837;DHT22;4957;51.412;6.724;2023-08-07T04:10:04;14.80;99.90
9837;DHT22;4957;51.412;6.724;2023-08-07T04:12:33;14.80;99.90
9837;DHT22;4957;51.412;6.724;2023-08-07T04:14:59;14.80;99.90
9837;DHT22;4957;51.412;6.724;2023-08-07T04:17:25;14.80;99.90
9837;DHT22;4957;51.412;6.724;2023-08-07T04:19:51;14.80;99.90
9837;DHT22;4957;51.412;6.724;2023-08-07T04:22:17;14.80;99.90
9837;DHT22;4957;51.412;6.724;2023-08-07T04:24:43;14.70;99.90
9837;DHT22;4957;51.412;6.724;2023-08-07T04:27:09;14.80;99.90
9837;DHT22;4957;51.412;6.724;2023-08-07T04:29:35;14.80;99.90
9837;DHT22;4957;51.412;6.724;2023-08-07T04:32:00;14.80;99.90
9837;DHT22;4957;51.412;6.724;2023-08-07T04:34:26;14.80;99.90
9837;DHT22;4957;51.412;6.724;2023-08-07T04:36:51;14.80;99.90
9837;DHT22;4957;51.412;6.724;2023-08-07T04:39:20;14.80;99.90
9837;DHT22;4957;51.412;6.724;2023-08-07T04:41:46;14.80;99.90
9837;DHT22;4957;51.412;6.724;2023-08-07T04:44:12;14.80;99.90
9837;DHT22;4957;51.412;6.724;2023-08-07T04:46:38;14.70;99.90
9837;DHT22;4957;51.412;6.724;2023-08-07T04:49:04;14.70;99.90
9837;DHT22;4957;51.412;6.724;2023-08-07T04:51:31;14.70;99.90
9837;DHT22;4957;51.412;6.724;2023-08-07T04:53:57;14.70;99.90
9837;DHT22;4957;51.412;6.724;2023-08-07T04:56:22;14.70;99.90
9837;DHT22;4957;51.412;6.724;2023-08-07T04:58:48;14.70;99.90
9837;DHT22;4957;51.412;6.724;2023-08-07T05:01:14;14.80;99.90
9837;DHT22;4957;51.412;6.724;2023-08-07T05:03:41;14.80;99.90
9837;DHT22;4957;51.412;6.724;2023-08-07T05:06:06;14.70;99.90
9837;DHT22;4957;51.412;6.724;2023-08-07T05:08:32;14.70;99.90
9837;DHT22;4957;51.412;6.724;2023-08-07T05:10:58;14.70;99.90
9837;DHT22;4957;51.412;6.724;2023-08-07T05:13:23;14.70;99.90
9837;DHT22;4957;51.412;6.724;2023-08-07T05:15:49;14.70;99.90
9837;DHT22;4957;51.412;6.724;2023-08-07T05:18:15;14.70;99.90
9837;DHT22;4957;51.412;6.724;2023-08-07T05:20:45;14.80;99.90
9837;DHT22;4957;51.412;6.724;2023-08-07T05:23:10;14.70;99.90
9837;DHT22;4957;51.412;6.724;2023-08-07T05:25:37;14.70;99.90
9837;DHT22;4957;51.412;6.724;2023-08-07T05:28:03;14.80;99.90
9837;DHT22;4957;51.412;6.724;2023-08-07T05:30:29;14.70;99.90
9837;DHT22;4957;51.412;6.724;2023-08-07T05:32:54;14.70;99.90
9837;DHT22;4957;51.412;6.724;2023-08-07T05:35:20;14.70;99.90
9837;DHT22;4957;51.412;6.724;2023-08-07T05:37:46;14.70;99.90
9837;DHT22;4957;51.412;6.724;2023-08-07T05:40:11;14.70;99.90
9837;DHT22;4957;51.412;6.724;2023-08-07T05:42:40;14.70;99.90
9837;DHT22;4957;51.412;6.724;2023-08-07T05:45:07;14.80;99.90
9837;DHT22;4957;51.412;6.724;2023-08-07T05:47:33;14.70;99.90
9837;DHT22;4957;51.412;6.724;2023-08-07T05:49:59;14.70;99.90
9837;DHT22;4957;51.412;6.724;2023-08-07T05:52:28;14.70;99.90
9837;DHT22;4957;51.412;6.724;2023-08-07T05:54:53;14.70;99.90
9837;DHT22;4957;51.412;6.724;2023-08-07T05:57:19;14.70;99.90
9837;DHT22;4957;51.412;6.724;2023-08-07T05:59:45;14.70;99.90
9837;DHT22;4957;51.412;6.724;2023-08-07T06:02:10;14.70;99.90
9837;DHT22;4957;51.412;6.724;2023-08-07T06:04:39;14.70;99.90
9837;DHT22;4957;51.412;6.724;2023-08-07T06:07:06;14.70;99.90
9837;DHT22;4957;51.412;6.724;2023-08-07T06:09:32;14.70;99.90
9837;DHT22;4957;51.412;6.724;2023-08-07T06:11:59;14.70;99.90
9837;DHT22;4957;51.412;6.724;2023-08-07T06:14:24;14.80;99.90
9837;DHT22;4957;51.412;6.724;2023-08-07T06:16:51;14.80;99.90
9837;DHT22;4957;51.412;6.724;2023-08-07T06:19:17;14.80;99.90
9837;DHT22;4957;51.412;6.724;2023-08-07T06:21:43;14.80;99.90
9837;DHT22;4957;51.412;6.724;2023-08-07T06:24:09;14.80;99.90
9837;DHT22;4957;51.412;6.724;2023-08-07T06:26:34;14.80;99.90
9837;DHT22;4957;51.412;6.724;2023-08-07T06:29:00;14.80;99.90
9837;DHT22;4957;51.412;6.724;2023-08-07T06:31:25;14.80;99.90
9837;DHT22;4957;51.412;6.724;2023-08-07T06:33:51;14.80;99.90
9837;DHT22;4957;51.412;6.724;2023-08-07T06:36:17;14.90;99.90
9837;DHT22;4957;51.412;6.724;2023-08-07T06:38:45;14.90;99.90
9837;DHT22;4957;51.412;6.724;2023-08-07T06:41:12;14.90;99.90
9837;DHT22;4957;51.412;6.724;2023-08-07T06:43:37;14.90;99.90
9837;DHT22;4957;51.412;6.724;2023-08-07T06:46:03;14.90;99.90
9837;DHT22;4957;51.412;6.724;2023-08-07T06:48:29;14.90;99.90
9837;DHT22;4957;51.412;6.724;2023-08-07T06:50:54;14.90;99.90
9837;DHT22;4957;51.412;6.724;2023-08-07T06:53:20;14.90;99.90
9837;DHT22;4957;51.412;6.724;2023-08-07T06:55:46;14.90;99.90
9837;DHT22;4957;51.412;6.724;2023-08-07T06:58:12;14.90;99.90
9837;DHT22;4957;51.412;6.724;2023-08-07T07:00:38;14.90;99.90
9837;DHT22;4957;51.412;6.724;2023-08-07T07:03:04;14.90;99.90
9837;DHT22;4957;51.412;6.724;2023-08-07T07:05:30;15.00;99.90
9837;DHT22;4957;51.412;6.724;2023-08-07T07:07:57;15.00;99.90
9837;DHT22;4957;51.412;6.724;2023-08-07T07:10:23;15.00;99.90
9837;DHT22;4957;51.412;6.724;2023-08-07T07:12:48;15.00;99.90
9837;DHT22;4957;51.412;6.724;2023-08-07T07:15:14;15.00;99.90
9837;DHT22;4957;51.412;6.724;2023-08-07T07:17:40;15.00;99.90
9837;DHT22;4957;51.412;6.724;2023-08-07T07:20:06;15.00;99.90
9837;DHT22;4957;51.412;6.724;2023-08-07T07:22:34;15.00;99.90
9837;DHT22;4957;51.412;6.724;2023-08-07T07:25:00;15.00;99.90
9837;DHT22;4957;51.412;6.724;2023-08-07T07:27:26;15.00;99.90
9837;DHT22;4957;51.412;6.724;2023-08-07T07:29:52;15.00;99.90
9837;DHT22;4957;51.412;6.724;2023-08-07T07:32:17;15.00;99.90
9837;DHT22;4957;51.412;6.724;2023-08-07T07:34:43;15.10;99.90
9837;DHT22;4957;51.412;6.724;2023-08-07T07:37:10;15.00;99.90
9837;DHT22;4957;51.412;6.724;2023-08-07T07:39:35;15.10;99.90
9837;DHT22;4957;51.412;6.724;2023-08-07T07:42:01;15.10;99.90
9837;DHT22;4957;51.412;6.724;2023-08-07T07:44:28;15.00;99.90
9837;DHT22;4957;51.412;6.724;2023-08-07T07:46:54;15.00;99.90
9837;DHT22;4957;51.412;6.724;2023-08-07T07:49:20;15.10;99.90
9837;DHT22;4957;51.412;6.724;2023-08-07T07:51:46;15.00;99.90
9837;DHT22;4957;51.412;6.724;2023-08-07T07:54:11;15.10;99.90
9837;DHT22;4957;51.412;6.724;2023-08-07T07:56:37;15.10;99.90
9837;DHT22;4957;51.412;6.724;2023-08-07T07:59:03;15.10;99.90
9837;DHT22;4957;51.412;6.724;2023-08-07T08:01:29;15.20;99.90
9837;DHT22;4957;51.412;6.724;2023-08-07T08:03:54;15.20;99.90
9837;DHT22;4957;51.412;6.724;2023-08-07T08:06:20;15.30;99.90
9837;DHT22;4957;51.412;6.724;2023-08-07T08:08:45;15.30;99.90
9837;DHT22;4957;51.412;6.724;2023-08-07T08:11:11;15.40;99.90
9837;DHT22;4957;51.412;6.724;2023-08-07T08:13:37;15.40;99.90
9837;DHT22;4957;51.412;6.724;2023-08-07T08:16:05;15.50;99.90
9837;DHT22;4957;51.412;6.724;2023-08-07T08:18:30;15.50;99.90
9837;DHT22;4957;51.412;6.724;2023-08-07T08:20:56;15.60;99.90
9837;DHT22;4957;51.412;6.724;2023-08-07T08:23:22;15.60;99.90
9837;DHT22;4957;51.412;6.724;2023-08-07T08:25:48;15.70;99.90
9837;DHT22;4957;51.412;6.724;2023-08-07T08:28:14;15.70;99.90
9837;DHT22;4957;51.412;6.724;2023-08-07T08:30:41;15.80;99.90
9837;DHT22;4957;51.412;6.724;2023-08-07T08:33:07;15.80;99.90
9837;DHT22;4957;51.412;6.724;2023-08-07T08:35:34;15.80;99.90
9837;DHT22;4957;51.412;6.724;2023-08-07T08:38:00;15.90;99.90
9837;DHT22;4957;51.412;6.724;2023-08-07T08:40:27;15.90;99.90
9837;DHT22;4957;51.412;6.724;2023-08-07T08:42:55;15.90;99.90
9837;DHT22;4957;51.412;6.724;2023-08-07T08:45:25;16.00;99.90
9837;DHT22;4957;51.412;6.724;2023-08-07T08:47:51;16.10;99.90
9837;DHT22;4957;51.412;6.724;2023-08-07T08:50:21;16.20;99.90
9837;DHT22;4957;51.412;6.724;2023-08-07T08:52:47;16.20;99.90
9837;DHT22;4957;51.412;6.724;2023-08-07T08:55:13;16.20;99.90
9837;DHT22;4957;51.412;6.724;2023-08-07T08:57:41;16.30;99.90
9837;DHT22;4957;51.412;6.724;2023-08-07T09:00:08;16.30;99.90
9837;DHT22;4957;51.412;6.724;2023-08-07T09:02:47;16.50;99.90
9837;DHT22;4957;51.412;6.724;2023-08-07T09:05:18;16.50;99.90
9837;DHT22;4957;51.412;6.724;2023-08-07T09:07:47;16.60;99.90
9837;DHT22;4957;51.412;6.724;2023-08-07T09:10:14;16.70;99.90
9837;DHT22;4957;51.412;6.724;2023-08-07T09:12:54;16.70;99.90
9837;DHT22;4957;51.412;6.724;2023-08-07T09:15:25;16.70;99.90
9837;DHT22;4957;51.412;6.724;2023-08-07T09:17:54;16.80;99.90
9837;DHT22;4957;51.412;6.724;2023-08-07T09:20:22;16.80;99.90
9837;DHT22;4957;51.412;6.724;2023-08-07T09:22:54;16.80;99.90
9837;DHT22;4957;51.412;6.724;2023-08-07T09:25:33;16.80;99.90
9837;DHT22;4957;51.412;6.724;2023-08-07T09:28:09;16.80;99.90
9837;DHT22;4957;51.412;6.724;2023-08-07T09:30:37;16.80;99.90
9837;DHT22;4957;51.412;6.724;2023-08-07T09:33:03;16.80;99.90
9837;DHT22;4957;51.412;6.724;2023-08-07T09:35:30;16.80;99.90
9837;DHT22;4957;51.412;6.724;2023-08-07T09:38:07;16.80;99.90
9837;DHT22;4957;51.412;6.724;2023-08-07T09:40:33;16.80;99.90
9837;DHT22;4957;51.412;6.724;2023-08-07T09:43:00;16.80;99.90
9837;DHT22;4957;51.412;6.724;2023-08-07T09:45:29;16.80;99.90
9837;DHT22;4957;51.412;6.724;2023-08-07T09:48:04;16.90;99.90
9837;DHT22;4957;51.412;6.724;2023-08-07T09:50:33;16.90;99.90
9837;DHT22;4957;51.412;6.724;2023-08-07T09:52:59;17.00;99.90
9837;DHT22;4957;51.412;6.724;2023-08-07T09:55:31;17.00;99.90
9837;DHT22;4957;51.412;6.724;2023-08-07T09:58:00;17.10;99.90
9837;DHT22;4957;51.412;6.724;2023-08-07T10:00:36;17.10;99.90
9837;DHT22;4957;51.412;6.724;2023-08-07T10:03:14;17.30;99.90
9837;DHT22;4957;51.412;6.724;2023-08-07T10:05:41;17.40;99.90
9837;DHT22;4957;51.412;6.724;2023-08-07T10:08:07;17.50;99.90
9837;DHT22;4957;51.412;6.724;2023-08-07T10:10:34;17.60;99.90
9837;DHT22;4957;51.412;6.724;2023-08-07T10:13:04;17.80;99.90
9837;DHT22;4957;51.412;6.724;2023-08-07T10:15:31;18.00;99.90
9837;DHT22;4957;51.412;6.724;2023-08-07T10:17:58;18.10;99.90
9837;DHT22;4957;51.412;6.724;2023-08-07T10:20:28;18.30;99.90
9837;DHT22;4957;51.412;6.724;2023-08-07T10:23:04;18.50;99.90
9837;DHT22;4957;51.412;6.724;2023-08-07T10:25:32;18.70;99.90
9837;DHT22;4957;51.412;6.724;2023-08-07T10:28:00;18.80;99.90
9837;DHT22;4957;51.412;6.724;2023-08-07T10:30:27;19.00;99.90
9837;DHT22;4957;51.412;6.724;2023-08-07T10:32:55;19.10;99.90
9837;DHT22;4957;51.412;6.724;2023-08-07T10:35:32;19.20;99.90
9837;DHT22;4957;51.412;6.724;2023-08-07T10:38:19;19.30;99.90
9837;DHT22;4957;51.412;6.724;2023-08-07T10:43:27;19.50;99.90
9837;DHT22;4957;51.412;6.724;2023-08-07T10:45:54;19.50;99.90
9837;DHT22;4957;51.412;6.724;2023-08-07T10:48:26;19.40;99.90
9837;DHT22;4957;51.412;6.724;2023-08-07T10:53:28;19.40;99.90
9837;DHT22;4957;51.412;6.724;2023-08-07T10:55:54;19.30;99.90
9837;DHT22;4957;51.412;6.724;2023-08-07T10:58:30;19.20;99.90
9837;DHT22;4957;51.412;6.724;2023-08-07T11:01:50;19.20;99.90
9837;DHT22;4957;51.412;6.724;2023-08-07T11:04:15;19.10;99.90
9837;DHT22;4957;51.412;6.724;2023-08-07T11:06:43;19.20;99.90
9837;DHT22;4957;51.412;6.724;2023-08-07T11:09:10;19.20;99.90
9837;DHT22;4957;51.412;6.724;2023-08-07T11:11:40;19.30;99.90
9837;DHT22;4957;51.412;6.724;2023-08-07T11:14:12;19.50;99.90
9837;DHT22;4957;51.412;6.724;2023-08-07T11:16:39;19.70;99.90
9837;DHT22;4957;51.412;6.724;2023-08-07T11:19:05;19.90;99.90
9837;DHT22;4957;51.412;6.724;2023-08-07T11:21:32;20.00;99.90
9837;DHT22;4957;51.412;6.724;2023-08-07T11:23:58;20.20;99.90
9837;DHT22;4957;51.412;6.724;2023-08-07T11:26:23;20.40;99.90
9837;DHT22;4957;51.412;6.724;2023-08-07T11:28:51;20.50;99.90
9837;DHT22;4957;51.412;6.724;2023-08-07T11:31:21;20.60;99.90
9837;DHT22;4957;51.412;6.724;2023-08-07T11:33:49;20.60;99.90
9837;DHT22;4957;51.412;6.724;2023-08-07T11:36:15;20.60;99.90
9837;DHT22;4957;51.412;6.724;2023-08-07T11:38:42;20.60;99.90
9837;DHT22;4957;51.412;6.724;2023-08-07T11:41:09;20.60;99.90
9837;DHT22;4957;51.412;6.724;2023-08-07T11:43:36;20.60;99.90
9837;DHT22;4957;51.412;6.724;2023-08-07T11:46:07;20.60;99.90
9837;DHT22;4957;51.412;6.724;2023-08-07T11:48:34;20.70;99.90
9837;DHT22;4957;51.412;6.724;2023-08-07T11:51:01;20.80;99.90
9837;DHT22;4957;51.412;6.724;2023-08-07T11:53:30;20.90;99.90
9837;DHT22;4957;51.412;6.724;2023-08-07T11:55:57;21.10;99.90
9837;DHT22;4957;51.412;6.724;2023-08-07T11:58:35;21.30;99.90
9837;DHT22;4957;51.412;6.724;2023-08-07T12:01:24;21.50;99.90
9837;DHT22;4957;51.412;6.724;2023-08-07T12:03:58;21.60;99.90
9837;DHT22;4957;51.412;6.724;2023-08-07T12:06:34;21.70;99.90
9837;DHT22;4957;51.412;6.724;2023-08-07T12:09:07;21.90;99.90
9837;DHT22;4957;51.412;6.724;2023-08-07T12:11:38;22.00;99.90
9837;DHT22;4957;51.412;6.724;2023-08-07T12:14:04;22.10;99.90
9837;DHT22;4957;51.412;6.724;2023-08-07T12:16:34;22.20;99.90
9837;DHT22;4957;51.412;6.724;2023-08-07T12:19:01;22.30;99.90
9837;DHT22;4957;51.412;6.724;2023-08-07T12:21:27;22.50;99.90
9837;DHT22;4957;51.412;6.724;2023-08-07T12:23:56;22.50;99.90
9837;DHT22;4957;51.412;6.724;2023-08-07T12:26:22;22.60;99.90
9837;DHT22;4957;51.412;6.724;2023-08-07T12:28:48;22.60;99.90
9837;DHT22;4957;51.412;6.724;2023-08-07T12:31:14;22.60;99.70
9837;DHT22;4957;51.412;6.724;2023-08-07T12:33:40;22.70;99.10
9837;DHT22;4957;51.412;6.724;2023-08-07T12:36:05;22.70;98.50
9837;DHT22;4957;51.412;6.724;2023-08-07T12:38:31;22.70;97.80
9837;DHT22;4957;51.412;6.724;2023-08-07T12:40:57;22.80;98.60
9837;DHT22;4957;51.412;6.724;2023-08-07T12:43:23;22.80;97.90
9837;DHT22;4957;51.412;6.724;2023-08-07T12:45:48;22.80;98.30
9837;DHT22;4957;51.412;6.724;2023-08-07T12:48:14;22.90;97.30
9837;DHT22;4957;51.412;6.724;2023-08-07T12:50:40;22.90;98.00
9837;DHT22;4957;51.412;6.724;2023-08-07T12:53:07;22.90;97.20
9837;DHT22;4957;51.412;6.724;2023-08-07T12:55:33;22.90;96.80
9837;DHT22;4957;51.412;6.724;2023-08-07T12:57:59;22.90;95.80
9837;DHT22;4957;51.412;6.724;2023-08-07T13:00:24;22.90;95.50
9837;DHT22;4957;51.412;6.724;2023-08-07T13:02:52;23.00;95.10
9837;DHT22;4957;51.412;6.724;2023-08-07T13:05:19;23.00;96.10
9837;DHT22;4957;51.412;6.724;2023-08-07T13:07:46;23.00;94.90
9837;DHT22;4957;51.412;6.724;2023-08-07T13:10:13;23.10;94.10
9837;DHT22;4957;51.412;6.724;2023-08-07T13:12:41;23.10;95.20
9837;DHT22;4957;51.412;6.724;2023-08-07T13:15:08;23.10;94.90
9837;DHT22;4957;51.412;6.724;2023-08-07T13:17:35;23.20;94.80
9837;DHT22;4957;51.412;6.724;2023-08-07T13:20:02;23.30;94.50
9837;DHT22;4957;51.412;6.724;2023-08-07T13:22:34;23.30;94.20
9837;DHT22;4957;51.412;6.724;2023-08-07T13:25:00;23.30;93.30
9837;DHT22;4957;51.412;6.724;2023-08-07T13:27:26;23.40;94.80
9837;DHT22;4957;51.412;6.724;2023-08-07T13:29:52;23.50;94.80
9837;DHT22;4957;51.412;6.724;2023-08-07T13:32:18;23.50;94.60
9837;DHT22;4957;51.412;6.724;2023-08-07T13:34:45;23.60;94.30
9837;DHT22;4957;51.412;6.724;2023-08-07T13:37:11;23.60;94.20
9837;DHT22;4957;51.412;6.724;2023-08-07T13:39:37;23.50;93.40
9837;DHT22;4957;51.412;6.724;2023-08-07T13:42:03;23.60;93.70
9837;DHT22;4957;51.412;6.724;2023-08-07T13:44:29;23.50;93.40
9837;DHT22;4957;51.412;6.724;2023-08-07T13:46:55;23.50;92.70
9837;DHT22;4957;51.412;6.724;2023-08-07T13:49:22;23.50;92.20
9837;DHT22;4957;51.412;6.724;2023-08-07T13:51:49;23.40;93.90
9837;DHT22;4957;51.412;6.724;2023-08-07T13:54:15;23.40;93.60
9837;DHT22;4957;51.412;6.724;2023-08-07T13:56:41;23.40;94.20
9837;DHT22;4957;51.412;6.724;2023-08-07T13:59:06;23.30;93.30
9837;DHT22;4957;51.412;6.724;2023-08-07T14:01:33;23.30;92.40
9837;DHT22;4957;51.412;6.724;2023-08-07T14:04:00;23.20;92.80
9837;DHT22;4957;51.412;6.724;2023-08-07T14:06:26;23.10;94.30
9837;DHT22;4957;51.412;6.724;2023-08-07T14:08:52;23.10;93.40
9837;DHT22;4957;51.412;6.724;2023-08-07T14:11:18;23.00;91.70
9837;DHT22;4957;51.412;6.724;2023-08-07T14:13:44;22.90;93.40
9837;DHT22;4957;51.412;6.724;2023-08-07T14:16:11;22.90;92.80
9837;DHT22;4957;51.412;6.724;2023-08-07T14:18:37;22.80;92.80
9837;DHT22;4957;51.412;6.724;2023-08-07T14:21:03;22.80;92.20
9837;DHT22;4957;51.412;6.724;2023-08-07T14:23:29;22.70;92.40
9837;DHT22;4957;51.412;6.724;2023-08-07T14:25:55;22.70;91.90
9837;DHT22;4957;51.412;6.724;2023-08-07T14:28:21;22.60;92.10
9837;DHT22;4957;51.412;6.724;2023-08-07T14:30:47;22.50;91.60
9837;DHT22;4957;51.412;6.724;2023-08-07T14:33:13;22.50;91.50
9837;DHT22;4957;51.412;6.724;2023-08-07T14:35:39;22.40;90.30
9837;DHT22;4957;51.412;6.724;2023-08-07T14:38:04;22.40;90.10
9837;DHT22;4957;51.412;6.724;2023-08-07T14:40:30;22.30;90.20
9837;DHT22;4957;51.412;6.724;2023-08-07T14:42:57;22.30;91.80
9837;DHT22;4957;51.412;6.724;2023-08-07T14:45:22;22.20;90.40
9837;DHT22;4957;51.412;6.724;2023-08-07T14:47:49;22.20;90.40
9837;DHT22;4957;51.412;6.724;2023-08-07T14:50:16;22.20;90.90
9837;DHT22;4957;51.412;6.724;2023-08-07T14:52:42;22.10;89.90
9837;DHT22;4957;51.412;6.724;2023-08-07T14:55:08;22.10;89.40
9837;DHT22;4957;51.412;6.724;2023-08-07T14:57:34;22.10;90.10
9837;DHT22;4957;51.412;6.724;2023-08-07T15:00:00;22.10;88.80
9837;DHT22;4957;51.412;6.724;2023-08-07T15:02:26;22.10;89.20
9837;DHT22;4957;51.412;6.724;2023-08-07T15:04:51;22.10;89.40
9837;DHT22;4957;51.412;6.724;2023-08-07T15:07:17;22.20;89.20
9837;DHT22;4957;51.412;6.724;2023-08-07T15:09:43;22.20;90.40
9837;DHT22;4957;51.412;6.724;2023-08-07T15:12:09;22.10;88.30
9837;DHT22;4957;51.412;6.724;2023-08-07T15:14:35;22.20;90.40
9837;DHT22;4957;51.412;6.724;2023-08-07T15:17:01;22.20;89.40
9837;DHT22;4957;51.412;6.724;2023-08-07T15:19:26;22.20;87.90
9837;DHT22;4957;51.412;6.724;2023-08-07T15:21:52;22.20;86.60
9837;DHT22;4957;51.412;6.724;2023-08-07T15:24:18;22.20;87.90
9837;DHT22;4957;51.412;6.724;2023-08-07T15:26:44;22.20;88.70
9837;DHT22;4957;51.412;6.724;2023-08-07T15:29:10;22.30;87.20
9837;DHT22;4957;51.412;6.724;2023-08-07T15:31:36;22.20;88.10
9837;DHT22;4957;51.412;6.724;2023-08-07T15:34:02;22.20;88.10
9837;DHT22;4957;51.412;6.724;2023-08-07T15:36:27;22.20;87.60
9837;DHT22;4957;51.412;6.724;2023-08-07T15:38:53;22.20;88.10
9837;DHT22;4957;51.412;6.724;2023-08-07T15:41:19;22.20;87.80
9837;DHT22;4957;51.412;6.724;2023-08-07T15:43:44;22.20;89.00
9837;DHT22;4957;51.412;6.724;2023-08-07T15:46:10;22.10;89.90
9837;DHT22;4957;51.412;6.724;2023-08-07T15:48:35;22.10;90.80
9837;DHT22;4957;51.412;6.724;2023-08-07T15:51:01;22.10;90.20
9837;DHT22;4957;51.412;6.724;2023-08-07T15:53:27;22.00;90.40
9837;DHT22;4957;51.412;6.724;2023-08-07T15:55:53;22.00;90.30
9837;DHT22;4957;51.412;6.724;2023-08-07T15:58:18;22.00;90.10
9837;DHT22;4957;51.412;6.724;2023-08-07T16:00:44;21.90;90.00
9837;DHT22;4957;51.412;6.724;2023-08-07T16:03:10;21.90;90.40
9837;DHT22;4957;51.412;6.724;2023-08-07T16:05:37;21.90;90.40
9837;DHT22;4957;51.412;6.724;2023-08-07T16:08:04;21.90;89.80
9837;DHT22;4957;51.412;6.724;2023-08-07T16:10:32;22.00;89.70